Eagle Creek, Oregon
Current Conditions -  °F | °C
As of 9:53 PM on Friday 28 Nov 2014 (Local Time) from KTTD Reporting Station
Overcast Overcast  
Wind Chill: 42°   Ceiling: 4200
Heat Index: 45°   Visibility: 10mi
Dew Point: 40°   Wind: 6mph
Humidity: 82%   Direction: 260°W
Pressure: 29.6"   Gusts: NA
Location:  45.36°N, 122.36°W
Report Text: KTTD 290553Z AUTO 26005KT 10SM BKN042 OVC050 07/04 A2960 RMK AO2 RAE00 SLP023 P0000 60058 T00720044 10144 20072 51020
Loading
Personal Weather Stations






























Interactive Weather Map New forecast layout! Learn more

10-Day Weather Forecast

Advertisements
Track Severe Weather on mobile